Time;durP1;ratioP1;P1;durP2;ratioP2;P2;SDS_P1;SDS_P2;PMS_P1;PMS_P2;Temp;Humidity;BMP_temperature;BMP_pressure;BME280_temperature;BME280_humidity;BME280_pressure;Samples;Min_cycle;Max_cycle;Signal;HPM_P1;HPM_P2
2022/04/23 00:01:36;;;;;;;11.02;6.80;;;12.20;99.90;;;;;;5067255;28;20071;-64
2022/04/23 00:04:02;;;;;;;8.45;6.20;;;12.10;99.90;;;;;;5065694;28;20083;-64
2022/04/23 00:06:27;;;;;;;8.18;6.03;;;12.10;99.90;;;;;;5076559;28;20052;-64
2022/04/23 00:08:53;;;;;;;7.38;6.45;;;12.00;99.90;;;;;;5077730;28;20209;-64
2022/04/23 00:11:18;;;;;;;13.15;6.75;;;12.00;99.90;;;;;;5077079;28;20088;-64
2022/04/23 00:13:44;;;;;;;9.90;5.85;;;11.90;99.90;;;;;;5076669;28;20040;-64
2022/04/23 00:16:10;;;;;;;10.48;6.20;;;11.90;99.90;;;;;;5076389;28;20073;-64
2022/04/23 00:18:36;;;;;;;11.52;7.38;;;11.80;99.90;;;;;;5073365;28;20087;-64
2022/04/23 00:21:03;;;;;;;7.57;6.38;;;11.80;99.90;;;;;;5063879;28;20150;-64
2022/04/23 00:23:31;;;;;;;13.93;6.80;;;11.70;99.90;;;;;;5076474;28;20044;-64
2022/04/23 00:25:58;;;;;;;10.27;7.35;;;11.60;99.90;;;;;;5077174;28;20048;-64
2022/04/23 00:28:24;;;;;;;11.30;6.72;;;11.60;99.90;;;;;;5066676;28;20056;-64
2022/04/23 00:30:52;;;;;;;9.02;5.75;;;11.60;99.90;;;;;;5075422;28;20361;-64
2022/04/23 00:33:20;;;;;;;8.10;5.28;;;11.50;99.90;;;;;;5072192;28;20189;-64
2022/04/23 00:35:48;;;;;;;7.43;5.75;;;11.50;99.90;;;;;;5073181;28;20044;-64
2022/04/23 00:38:16;;;;;;;12.55;7.47;;;11.40;99.90;;;;;;5075480;28;20086;-64
2022/04/23 00:40:43;;;;;;;8.15;6.40;;;11.40;99.90;;;;;;5075613;28;20597;-64
2022/04/23 00:43:36;;;;;;;13.90;7.75;;;11.40;99.90;;;;;;5074953;28;20487;-65
2022/04/23 00:46:02;;;;;;;13.68;6.85;;;11.30;99.90;;;;;;5067782;28;20114;-65
2022/04/23 00:48:29;;;;;;;9.82;6.95;;;11.20;99.90;;;;;;5073370;28;20040;-64
2022/04/23 00:50:57;;;;;;;9.05;6.03;;;11.20;99.90;;;;;;5066410;28;20052;-64
2022/04/23 00:53:24;;;;;;;10.13;7.18;;;11.10;99.90;;;;;;5055521;28;20064;-65
2022/04/23 00:55:52;;;;;;;9.45;7.68;;;11.10;99.90;;;;;;5054774;28;20059;-64
2022/04/23 00:58:18;;;;;;;7.30;6.60;;;11.10;99.90;;;;;;5056126;28;20840;-66
2022/04/23 01:00:44;;;;;;;9.95;6.47;;;11.00;99.90;;;;;;5053920;28;20117;-64
2022/04/23 01:03:12;;;;;;;10.75;7.65;;;10.90;99.90;;;;;;5055063;28;20080;-64
2022/04/23 01:05:47;;;;;;;8.65;7.00;;;10.90;99.90;;;;;;5054625;28;20088;-64
2022/04/23 01:08:15;;;;;;;13.70;8.57;;;10.80;99.90;;;;;;5066153;28;20052;-64
2022/04/23 01:10:45;;;;;;;15.73;7.85;;;10.80;99.90;;;;;;5075567;28;20040;-63
2022/04/23 01:13:14;;;;;;;13.35;8.13;;;10.70;99.90;;;;;;5073393;28;20063;-64
2022/04/23 01:15:59;;;;;;;10.43;7.35;;;10.70;99.90;;;;;;5075976;28;20051;-64
2022/04/23 01:18:25;;;;;;;8.20;7.40;;;10.70;99.90;;;;;;5075276;28;20052;-64
2022/04/23 01:20:51;;;;;;;9.65;7.90;;;10.70;99.90;;;;;;5073353;28;20047;-63
2022/04/23 01:23:17;;;;;;;11.77;6.80;;;10.70;99.90;;;;;;5070250;28;20578;-63
2022/04/23 01:25:43;;;;;;;10.88;6.57;;;10.70;99.90;;;;;;5074953;28;20147;-64
2022/04/23 01:28:09;;;;;;;9.77;7.35;;;10.70;99.90;;;;;;5074171;28;20040;-63
2022/04/23 01:30:35;;;;;;;9.43;7.35;;;10.70;99.90;;;;;;5076318;28;20054;-64
2022/04/23 01:33:00;;;;;;;14.00;7.97;;;10.70;99.90;;;;;;5059547;28;20049;-64
2022/04/23 01:35:27;;;;;;;15.27;8.75;;;10.70;99.90;;;;;;5054295;28;20051;-64
2022/04/23 01:37:53;;;;;;;9.65;7.50;;;10.60;99.90;;;;;;5053628;28;20049;-63
2022/04/23 01:40:19;;;;;;;10.82;9.40;;;10.60;99.90;;;;;;5059113;28;20051;-64
2022/04/23 01:42:45;;;;;;;11.60;7.63;;;10.60;99.90;;;;;;5053341;28;20174;-64
2022/04/23 01:45:11;;;;;;;11.40;8.00;;;10.60;99.90;;;;;;5055225;28;20048;-64
2022/04/23 01:47:36;;;;;;;9.73;7.95;;;10.50;99.90;;;;;;5064507;28;20055;-64
2022/04/23 01:50:02;;;;;;;9.32;7.47;;;10.60;99.90;;;;;;5055150;28;20044;-64
2022/04/23 01:52:28;;;;;;;14.25;8.93;;;10.50;99.90;;;;;;5055584;28;20048;-65
2022/04/23 01:54:54;;;;;;;12.80;8.05;;;10.50;99.90;;;;;;5072034;28;20078;-64
2022/04/23 01:57:19;;;;;;;11.95;7.55;;;10.50;99.90;;;;;;5060648;28;20071;-64
2022/04/23 01:59:45;;;;;;;14.27;8.85;;;10.50;99.90;;;;;;5054450;28;20785;-64
2022/04/23 02:02:10;;;;;;;10.85;7.50;;;10.50;99.90;;;;;;5070449;28;20040;-64
2022/04/23 02:04:36;;;;;;;12.57;8.40;;;10.40;99.90;;;;;;5075633;28;20064;-64
2022/04/23 02:07:01;;;;;;;10.05;8.73;;;10.50;99.90;;;;;;5075028;28;20040;-64
2022/04/23 02:09:27;;;;;;;12.90;9.20;;;10.40;99.90;;;;;;5075096;28;20902;-63
2022/04/23 02:11:52;;;;;;;11.55;7.75;;;10.40;99.90;;;;;;5073938;28;20411;-64
2022/04/23 02:14:18;;;;;;;10.35;8.63;;;10.30;99.90;;;;;;5074287;28;20741;-64
2022/04/23 02:16:44;;;;;;;13.57;8.65;;;10.30;99.90;;;;;;5065363;28;20040;-64
2022/04/23 02:19:09;;;;;;;12.10;9.10;;;10.30;99.90;;;;;;5075087;28;20482;-64
2022/04/23 02:21:35;;;;;;;10.85;8.38;;;10.30;99.90;;;;;;5074157;28;20829;-64
2022/04/23 02:24:04;;;;;;;9.27;7.85;;;10.30;99.90;;;;;;5074438;28;20293;-64
2022/04/23 02:26:29;;;;;;;9.48;8.32;;;10.20;99.90;;;;;;5057535;28;20101;-64
2022/04/23 02:28:55;;;;;;;12.55;9.23;;;10.20;99.90;;;;;;5053325;28;20044;-64
2022/04/23 02:31:21;;;;;;;13.50;8.75;;;10.20;99.90;;;;;;5069136;28;20055;-64
2022/04/23 02:33:46;;;;;;;12.57;9.02;;;10.10;99.90;;;;;;5072978;28;20051;-64
2022/04/23 02:36:12;;;;;;;14.35;8.90;;;10.10;99.90;;;;;;5060474;28;20468;-64
2022/04/23 02:38:41;;;;;;;11.90;8.90;;;10.10;99.90;;;;;;5057817;28;20050;-64
2022/04/23 02:41:08;;;;;;;14.93;9.50;;;10.10;99.90;;;;;;5059642;28;20040;-64
2022/04/23 02:43:38;;;;;;;13.38;8.10;;;10.10;99.90;;;;;;5062211;28;20060;-64
2022/04/23 02:46:07;;;;;;;11.60;8.60;;;10.10;99.90;;;;;;5072894;28;20626;-64
2022/04/23 02:48:33;;;;;;;12.90;8.15;;;10.00;99.90;;;;;;5078061;28;20126;-64
2022/04/23 02:50:59;;;;;;;10.50;7.97;;;10.00;99.90;;;;;;5077426;28;20721;-64
2022/04/23 02:53:26;;;;;;;10.32;7.95;;;10.00;99.90;;;;;;5075240;28;20147;-64
2022/04/23 02:55:54;;;;;;;12.32;9.52;;;10.00;99.90;;;;;;5076917;28;20043;-64
2022/04/23 02:58:20;;;;;;;15.93;9.35;;;10.00;99.90;;;;;;5071478;28;20050;-64
2022/04/23 03:00:46;;;;;;;13.20;8.10;;;9.90;99.90;;;;;;5060610;28;20482;-64
2022/04/23 03:03:12;;;;;;;11.80;8.32;;;9.90;99.90;;;;;;5078294;28;20051;-64
2022/04/23 03:05:42;;;;;;;13.20;9.50;;;9.90;99.90;;;;;;5078178;28;20048;-65
2022/04/23 03:08:11;;;;;;;10.13;8.57;;;9.90;99.90;;;;;;5078463;28;20077;-64
2022/04/23 03:10:39;;;;;;;11.35;9.23;;;9.90;99.90;;;;;;5078508;28;20035;-64
2022/04/23 03:13:07;;;;;;;10.25;7.57;;;9.90;99.90;;;;;;5076511;28;20055;-64
2022/04/23 03:15:34;;;;;;;9.63;7.80;;;9.80;99.90;;;;;;5076803;28;20062;-64
2022/04/23 03:18:09;;;;;;;12.32;8.35;;;9.80;99.90;;;;;;5079252;28;20125;-64
2022/04/23 03:20:35;;;;;;;10.70;8.82;;;9.80;99.90;;;;;;5078858;28;20048;-64
2022/04/23 03:23:01;;;;;;;10.40;8.43;;;9.80;99.90;;;;;;5079621;28;20040;-64
2022/04/23 03:25:27;;;;;;;10.52;8.88;;;9.80;99.90;;;;;;5079050;28;20051;-64
2022/04/23 03:27:53;;;;;;;9.88;8.10;;;9.70;99.90;;;;;;5071151;28;20068;-64
2022/04/23 03:30:20;;;;;;;12.95;8.48;;;9.70;99.90;;;;;;5058741;28;20499;-64
2022/04/23 03:32:46;;;;;;;10.95;8.02;;;9.70;99.90;;;;;;5075444;28;20059;-64
2022/04/23 03:35:12;;;;;;;11.50;8.82;;;9.70;99.90;;;;;;5076060;28;20052;-64
2022/04/23 03:37:41;;;;;;;11.45;8.63;;;9.70;99.90;;;;;;5062291;28;20044;-64
2022/04/23 03:40:09;;;;;;;12.98;9.52;;;9.60;99.90;;;;;;5062385;28;20048;-64
2022/04/23 03:42:35;;;;;;;14.80;7.75;;;9.60;99.90;;;;;;5057739;28;20135;-64
2022/04/23 03:45:02;;;;;;;11.27;8.27;;;9.60;99.90;;;;;;5058348;28;20070;-64
2022/04/23 03:47:27;;;;;;;11.80;8.35;;;9.50;99.90;;;;;;5057816;28;20056;-64
2022/04/23 03:49:53;;;;;;;9.55;7.70;;;9.50;99.90;;;;;;5064060;28;20058;-64
2022/04/23 03:52:19;;;;;;;11.48;8.80;;;9.50;99.90;;;;;;5079426;28;20140;-63
2022/04/23 03:54:46;;;;;;;9.90;8.50;;;9.50;99.90;;;;;;5064291;28;20163;-64
2022/04/23 03:57:12;;;;;;;9.18;7.93;;;9.50;99.90;;;;;;5057899;28;20056;-64
2022/04/23 03:59:37;;;;;;;13.27;9.88;;;9.50;99.90;;;;;;5057634;28;20051;-64
2022/04/23 04:02:04;;;;;;;13.48;9.15;;;9.40;99.90;;;;;;5059968;28;20131;-64
2022/04/23 04:04:31;;;;;;;14.52;10.15;;;9.40;99.90;;;;;;5056475;28;20045;-64
2022/04/23 04:06:58;;;;;;;9.65;8.60;;;9.40;99.90;;;;;;5055559;28;20458;-64
2022/04/23 04:09:24;;;;;;;13.18;9.30;;;9.40;99.90;;;;;;5055465;28;20087;-64
2022/04/23 04:12:01;;;;;;;9.75;8.40;;;9.40;99.90;;;;;;5055146;28;20128;-64
2022/04/23 04:14:30;;;;;;;10.40;7.95;;;9.40;99.90;;;;;;5056095;28;20085;-64
2022/04/23 04:16:58;;;;;;;10.48;8.48;;;9.40;99.90;;;;;;5071128;28;20465;-64
2022/04/23 04:19:25;;;;;;;10.85;7.82;;;9.40;99.90;;;;;;5076240;28;20052;-64
2022/04/23 04:21:51;;;;;;;12.25;8.23;;;9.30;99.90;;;;;;5060848;28;20143;-64
2022/04/23 04:24:16;;;;;;;12.30;9.75;;;9.30;99.90;;;;;;5056048;28;20807;-64
2022/04/23 04:26:43;;;;;;;12.82;8.75;;;9.30;99.90;;;;;;5055659;28;20059;-64
2022/04/23 04:29:14;;;;;;;11.48;9.43;;;9.30;99.90;;;;;;5057255;28;20048;-64
2022/04/23 04:31:49;;;;;;;12.18;9.20;;;9.30;99.90;;;;;;5059451;28;20185;-64
2022/04/23 04:34:19;;;;;;;11.60;8.95;;;9.30;99.90;;;;;;5056358;28;20575;-64
2022/04/23 04:36:47;;;;;;;12.80;8.57;;;9.20;99.90;;;;;;5058643;28;20049;-64
2022/04/23 04:39:13;;;;;;;11.65;9.27;;;9.20;99.90;;;;;;5076590;28;20762;-64
2022/04/23 04:41:39;;;;;;;12.18;8.40;;;9.30;99.90;;;;;;5073240;28;20044;-64
2022/04/23 04:44:05;;;;;;;9.05;7.93;;;9.20;99.90;;;;;;5076523;28;20055;-64
2022/04/23 04:46:32;;;;;;;10.18;8.57;;;9.30;99.90;;;;;;5062489;28;20040;-64
2022/04/23 04:48:57;;;;;;;12.02;9.75;;;9.20;99.90;;;;;;5058323;28;20040;-64
2022/04/23 04:51:23;;;;;;;10.90;8.18;;;9.20;99.90;;;;;;5056311;28;20064;-64
2022/04/23 04:53:49;;;;;;;14.68;9.98;;;9.20;99.90;;;;;;5057094;28;20051;-64
2022/04/23 04:56:14;;;;;;;12.98;8.52;;;9.20;99.90;;;;;;5054952;28;20067;-64
2022/04/23 04:58:43;;;;;;;11.02;9.05;;;9.20;99.90;;;;;;5054608;28;20129;-64
2022/04/23 05:01:10;;;;;;;11.10;8.52;;;9.20;99.90;;;;;;5054963;28;20056;-64
2022/04/23 05:03:35;;;;;;;12.00;8.73;;;9.30;99.90;;;;;;5070279;28;20060;-64
2022/04/23 05:06:01;;;;;;;10.43;8.13;;;9.20;99.90;;;;;;5063514;28;20048;-64
2022/04/23 05:08:27;;;;;;;12.27;9.05;;;9.30;99.90;;;;;;5055327;28;20491;-64
2022/04/23 05:10:52;;;;;;;11.95;7.63;;;9.30;99.90;;;;;;5056384;28;20556;-64
2022/04/23 05:13:18;;;;;;;11.50;8.30;;;9.40;99.90;;;;;;5068751;28;20047;-63
2022/04/23 05:15:45;;;;;;;12.52;9.50;;;9.40;99.90;;;;;;5067269;28;20076;-64
2022/04/23 05:18:10;;;;;;;12.20;9.63;;;9.40;99.90;;;;;;5055035;28;20123;-64
2022/04/23 05:20:36;;;;;;;9.85;7.75;;;9.40;99.90;;;;;;5056402;28;20496;-64
2022/04/23 05:23:02;;;;;;;12.57;9.10;;;9.50;99.90;;;;;;5056586;28;20037;-64
2022/04/23 05:25:28;;;;;;;14.68;8.57;;;9.50;99.90;;;;;;5052787;28;20478;-64
2022/04/23 05:27:53;;;;;;;12.05;8.35;;;9.60;99.90;;;;;;5053170;28;20147;-63
2022/04/23 05:30:19;;;;;;;13.73;8.35;;;9.60;99.90;;;;;;5061054;28;20044;-63
2022/04/23 05:32:44;;;;;;;11.05;7.78;;;9.60;99.90;;;;;;5062423;28;20036;-64
2022/04/23 05:35:10;;;;;;;8.57;6.53;;;9.70;99.90;;;;;;5054387;28;20076;-63
2022/04/23 05:37:36;;;;;;;8.57;7.15;;;9.80;99.90;;;;;;5064102;28;20365;-64
2022/04/23 05:40:01;;;;;;;10.18;7.88;;;9.80;99.90;;;;;;5061689;28;20045;-64
2022/04/23 05:42:27;;;;;;;11.15;6.75;;;9.90;99.90;;;;;;5071056;28;20585;-64
2022/04/23 05:44:52;;;;;;;10.52;7.95;;;9.90;99.90;;;;;;5053530;28;20041;-64
2022/04/23 05:47:18;;;;;;;12.88;8.15;;;9.90;99.90;;;;;;5072696;28;20044;-64
2022/04/23 05:49:43;;;;;;;9.93;8.32;;;10.00;99.90;;;;;;5060559;28;20058;-64
2022/04/23 05:52:10;;;;;;;22.65;8.45;;;10.00;99.90;;;;;;5073314;28;20127;-64
2022/04/23 05:54:35;;;;;;;10.90;7.85;;;10.10;99.90;;;;;;5072758;28;20052;-64
2022/04/23 05:57:01;;;;;;;10.10;6.82;;;10.10;99.90;;;;;;5062871;28;20083;-64
2022/04/23 05:59:29;;;;;;;12.00;6.90;;;10.20;99.90;;;;;;5063298;28;20044;-64
2022/04/23 06:01:55;;;;;;;13.40;7.95;;;10.20;99.90;;;;;;5059934;28;20055;-64
2022/04/23 06:04:22;;;;;;;13.07;9.10;;;10.20;99.90;;;;;;5055839;28;20053;-64
2022/04/23 06:06:48;;;;;;;16.48;8.63;;;10.30;99.90;;;;;;5055330;28;20056;-64
2022/04/23 06:09:14;;;;;;;12.25;7.88;;;10.40;99.90;;;;;;5059782;28;20104;-64
2022/04/23 06:11:39;;;;;;;14.32;9.38;;;10.40;99.90;;;;;;5059167;28;20705;-64
2022/04/23 06:14:05;;;;;;;11.98;9.23;;;10.40;99.90;;;;;;5049150;28;20052;-64
2022/04/23 06:16:30;;;;;;;11.45;9.25;;;10.50;99.90;;;;;;5054567;28;20059;-64
2022/04/23 06:18:56;;;;;;;9.07;7.93;;;10.40;99.90;;;;;;5050885;28;20053;-64
2022/04/23 06:21:21;;;;;;;10.75;7.68;;;10.50;99.90;;;;;;5057861;28;20059;-64
2022/04/23 06:23:47;;;;;;;14.98;8.82;;;10.60;99.90;;;;;;5052298;28;20040;-64
2022/04/23 06:26:13;;;;;;;12.13;8.80;;;10.70;99.90;;;;;;5055543;28;20052;-64
2022/04/23 06:28:38;;;;;;;12.80;9.43;;;10.70;99.90;;;;;;5058183;28;20202;-64
2022/04/23 06:31:04;;;;;;;11.00;8.93;;;10.70;99.90;;;;;;5059579;28;20119;-64
2022/04/23 06:33:29;;;;;;;10.43;8.15;;;10.80;99.90;;;;;;5059071;28;20100;-64
2022/04/23 06:35:55;;;;;;;13.88;8.13;;;10.90;99.90;;;;;;5055123;28;20065;-64
2022/04/23 06:38:20;;;;;;;10.40;8.45;;;11.00;99.90;;;;;;5056737;28;20049;-64
2022/04/23 06:40:47;;;;;;;10.65;7.03;;;11.10;99.90;;;;;;5054679;28;20051;-64
2022/04/23 06:43:13;;;;;;;10.07;7.65;;;11.20;99.90;;;;;;5062111;28;20246;-65
2022/04/23 06:45:39;;;;;;;11.43;8.32;;;11.30;99.90;;;;;;5054974;28;20504;-64
2022/04/23 06:48:05;;;;;;;9.18;7.57;;;11.30;99.90;;;;;;5059405;28;20046;-64
2022/04/23 06:50:32;;;;;;;11.98;7.80;;;11.40;99.90;;;;;;5055608;28;20052;-64
2022/04/23 06:52:59;;;;;;;10.60;8.27;;;11.60;99.90;;;;;;5050230;28;20048;-66
2022/04/23 06:55:25;;;;;;;10.35;6.72;;;11.80;99.90;;;;;;5053253;28;20130;-64
2022/04/23 06:57:51;;;;;;;11.10;8.65;;;12.00;99.90;;;;;;5055753;28;20618;-64
2022/04/23 07:00:16;;;;;;;10.60;8.27;;;12.40;99.90;;;;;;5063417;28;20123;-64
2022/04/23 07:02:42;;;;;;;13.07;8.95;;;13.40;99.90;;;;;;5063186;28;20654;-64
2022/04/23 07:05:08;;;;;;;8.93;7.28;;;14.50;99.20;;;;;;5055936;28;20102;-65
2022/04/23 07:07:34;;;;;;;8.55;7.32;;;15.10;97.40;;;;;;5058269;28;20045;-64
2022/04/23 07:09:59;;;;;;;10.02;7.30;;;15.70;96.00;;;;;;5055820;28;20736;-64
2022/04/23 07:12:25;;;;;;;13.25;8.50;;;16.20;94.80;;;;;;5052555;28;20078;-64
2022/04/23 07:14:51;;;;;;;10.55;8.35;;;16.50;93.80;;;;;;5054187;28;20052;-64
2022/04/23 07:17:24;;;;;;;9.40;6.57;;;17.00;93.60;;;;;;5061970;28;20458;-65
2022/04/23 07:19:50;;;;;;;10.68;9.23;;;16.80;92.10;;;;;;5049310;28;20048;-65
2022/04/23 07:22:16;;;;;;;10.63;8.85;;;17.00;92.30;;;;;;5061558;28;20064;-65
2022/04/23 07:24:41;;;;;;;10.95;8.25;;;17.30;92.70;;;;;;5055878;28;20119;-65
2022/04/23 07:27:07;;;;;;;8.88;7.97;;;17.30;91.50;;;;;;5060218;28;20062;-65
2022/04/23 07:29:33;;;;;;;10.57;8.73;;;17.70;90.70;;;;;;5066805;28;20804;-65
2022/04/23 07:31:58;;;;;;;9.13;8.23;;;17.80;91.50;;;;;;5078090;28;20055;-65
2022/04/23 07:39:55;;;;;;;7.55;6.78;;;18.20;89.40;;;;;;5076651;28;20105;-65
2022/04/23 07:42:20;;;;;;;7.88;7.07;;;18.30;89.10;;;;;;5073942;28;20045;-65
2022/04/23 07:44:46;;;;;;;11.13;7.55;;;18.50;87.40;;;;;;5058098;28;20048;-65
2022/04/23 07:47:11;;;;;;;9.90;7.13;;;18.50;86.60;;;;;;5057219;28;20074;-65
2022/04/23 07:49:37;;;;;;;9.07;7.30;;;18.70;86.20;;;;;;5062156;28;20660;-65
2022/04/23 07:52:04;;;;;;;9.50;8.10;;;18.70;86.40;;;;;;5077475;28;20959;-65
2022/04/23 07:54:29;;;;;;;8.38;7.47;;;19.00;85.10;;;;;;5077731;28;20698;-65
2022/04/23 07:56:55;;;;;;;11.23;8.45;;;19.00;84.20;;;;;;5077473;28;20048;-65
2022/04/23 07:59:21;;;;;;;8.73;7.65;;;19.00;84.70;;;;;;5078459;28;20654;-65
2022/04/23 08:01:47;;;;;;;11.43;8.18;;;19.20;81.90;;;;;;5078043;28;20151;-65
2022/04/23 08:04:12;;;;;;;8.88;7.97;;;19.20;81.80;;;;;;5076786;28;20048;-65
2022/04/23 08:06:38;;;;;;;9.55;8.18;;;19.00;79.60;;;;;;5074267;28;20475;-65
2022/04/23 08:09:04;;;;;;;9.77;8.27;;;19.00;80.50;;;;;;5060441;28;20788;-65
2022/04/23 08:11:30;;;;;;;7.57;6.78;;;19.20;80.80;;;;;;5063901;28;20044;-65
2022/04/23 08:13:56;;;;;;;10.48;8.80;;;19.00;79.30;;;;;;5072824;28;20428;-64
2022/04/23 08:16:22;;;;;;;7.85;7.15;;;19.30;76.90;;;;;;5078524;28;20101;-64
2022/04/23 08:18:48;;;;;;;12.30;8.02;;;19.70;77.70;;;;;;5070580;28;20044;-64
2022/04/23 08:21:14;;;;;;;10.80;7.57;;;19.50;75.30;;;;;;5074245;28;20039;-65
2022/04/23 08:23:40;;;;;;;9.90;8.25;;;19.50;73.50;;;;;;5069856;28;20574;-65
2022/04/23 08:26:06;;;;;;;6.82;6.22;;;19.20;72.20;;;;;;5066637;28;20044;-65
2022/04/23 08:31:16;;;;;;;9.43;7.32;;;19.30;71.70;;;;;;5058103;28;20590;-66
2022/04/23 08:33:57;;;;;;;11.13;7.18;;;19.60;72.40;;;;;;5064832;28;20539;-66
2022/04/23 08:36:23;;;;;;;9.77;7.72;;;19.70;71.10;;;;;;5062072;28;20051;-65
2022/04/23 08:38:49;;;;;;;8.90;6.90;;;19.80;72.10;;;;;;5057317;28;20746;-65
2022/04/23 08:41:15;;;;;;;7.78;5.38;;;19.90;70.50;;;;;;5062360;28;20047;-66
2022/04/23 08:43:41;;;;;;;11.05;7.35;;;19.80;69.50;;;;;;5060274;28;20078;-65
2022/04/23 08:46:07;;;;;;;6.70;6.05;;;19.70;68.60;;;;;;5060621;28;20048;-66
2022/04/23 08:48:42;;;;;;;10.00;7.40;;;19.60;68.20;;;;;;5072249;28;20075;-65
2022/04/23 08:51:13;;;;;;;14.25;8.63;;;19.60;67.80;;;;;;5069725;28;20051;-66
2022/04/23 08:53:40;;;;;;;12.27;7.38;;;19.60;67.80;;;;;;5063452;28;20540;-65
2022/04/23 08:56:08;;;;;;;10.93;6.88;;;19.50;67.10;;;;;;5069840;28;20044;-65
2022/04/23 08:58:33;;;;;;;8.40;7.50;;;19.60;68.70;;;;;;5063480;28;20040;-65
2022/04/23 09:00:59;;;;;;;8.48;7.00;;;19.40;67.20;;;;;;5060226;28;20055;-65
2022/04/23 09:03:24;;;;;;;8.38;7.05;;;19.40;67.00;;;;;;5068155;28;20313;-65
2022/04/23 09:05:51;;;;;;;9.32;6.18;;;19.40;67.00;;;;;;5072886;28;20063;-65
2022/04/23 09:08:17;;;;;;;9.70;8.02;;;19.40;66.50;;;;;;5067549;28;20149;-65
2022/04/23 09:10:47;;;;;;;7.57;6.03;;;19.50;67.00;;;;;;5056800;28;20559;-65
2022/04/23 09:13:27;;;;;;;8.10;7.15;;;19.60;66.60;;;;;;5070755;28;20411;-65
2022/04/23 09:24:46;;;;;;;10.48;7.55;;;20.10;66.10;;;;;;5062226;28;20059;-65
2022/04/23 09:27:11;;;;;;;9.55;7.60;;;20.20;65.50;;;;;;5063949;28;20047;-65
2022/04/23 09:29:37;;;;;;;8.60;7.30;;;19.90;65.40;;;;;;5062076;28;20083;-66
2022/04/23 09:32:14;;;;;;;9.35;8.45;;;19.80;65.70;;;;;;5065520;28;20040;-66
2022/04/23 09:34:40;;;;;;;10.32;7.90;;;19.80;65.50;;;;;;5060960;28;20886;-65
2022/04/23 09:37:08;;;;;;;9.70;6.95;;;20.00;66.10;;;;;;5057244;28;20131;-65
2022/04/23 09:39:36;;;;;;;10.90;8.02;;;19.60;66.50;;;;;;5069256;28;20048;-65
2022/04/23 09:42:15;;;;;;;10.95;7.28;;;19.60;66.80;;;;;;5054928;28;20040;-65
2022/04/23 09:44:42;;;;;;;10.40;7.95;;;19.80;65.90;;;;;;5058104;28;20088;-65
2022/04/23 09:47:07;;;;;;;9.43;7.47;;;20.00;66.40;;;;;;5062268;28;20136;-66
2022/04/23 09:49:34;;;;;;;7.68;6.63;;;20.00;65.70;;;;;;5055375;28;20730;-67
2022/04/23 09:52:06;;;;;;;8.02;7.07;;;20.00;65.70;;;;;;5062782;28;20041;-65
2022/04/23 09:54:33;;;;;;;11.48;8.10;;;19.90;65.50;;;;;;5061227;28;20686;-63
2022/04/23 09:57:00;;;;;;;8.43;6.35;;;20.00;65.20;;;;;;5054688;28;20057;-64
2022/04/23 09:59:29;;;;;;;12.32;9.75;;;19.90;65.00;;;;;;5054562;28;20041;-65
2022/04/23 10:01:56;;;;;;;10.45;8.18;;;19.80;65.40;;;;;;5070499;28;20049;-65
2022/04/23 10:04:23;;;;;;;7.85;7.05;;;19.80;66.10;;;;;;5068007;28;20091;-65
2022/04/23 10:06:52;;;;;;;12.25;8.57;;;19.90;65.90;;;;;;5053096;28;20666;-65
2022/04/23 10:09:21;;;;;;;11.68;8.90;;;19.90;65.40;;;;;;5054653;28;20049;-64
2022/04/23 10:11:50;;;;;;;10.05;7.95;;;20.00;65.70;;;;;;5064063;28;20055;-65
2022/04/23 10:14:22;;;;;;;9.20;8.32;;;20.20;64.80;;;;;;5055229;28;20083;-65
2022/04/23 10:16:49;;;;;;;10.98;9.00;;;20.20;65.40;;;;;;5065502;28;20687;-65
2022/04/23 10:19:15;;;;;;;9.00;8.10;;;20.00;64.30;;;;;;5075024;28;20055;-65
2022/04/23 10:21:58;;;;;;;10.07;7.10;;;20.10;64.40;;;;;;5074589;28;20052;-65
2022/04/23 10:24:37;;;;;;;7.97;7.03;;;20.20;64.10;;;;;;5058237;28;20071;-63
2022/04/23 10:27:07;;;;;;;9.95;8.32;;;20.30;63.90;;;;;;5059037;28;20392;-63
2022/04/23 10:29:33;;;;;;;9.65;8.65;;;20.40;64.60;;;;;;5074322;28;20093;-63
2022/04/23 10:32:11;;;;;;;11.10;7.72;;;20.50;64.70;;;;;;5074372;28;20048;-63
2022/04/23 10:34:38;;;;;;;9.77;8.63;;;20.20;62.50;;;;;;5054502;28;20879;-61
2022/04/23 10:37:29;;;;;;;10.95;8.20;;;20.50;63.50;;;;;;5053898;28;20083;-64
2022/04/23 10:39:55;;;;;;;9.32;8.07;;;20.50;63.00;;;;;;5066738;28;20460;-64
2022/04/23 10:42:25;;;;;;;12.07;8.68;;;20.60;63.60;;;;;;5064628;28;20051;-64
2022/04/23 10:44:55;;;;;;;11.68;8.35;;;20.70;63.00;;;;;;5062701;28;20036;-63
2022/04/23 10:47:36;;;;;;;12.43;8.70;;;20.50;62.70;;;;;;5055454;28;20040;-64
2022/04/23 10:50:22;;;;;;;10.63;8.88;;;19.90;62.10;;;;;;5061608;28;20526;-64
2022/04/23 10:52:55;;;;;;;8.88;7.97;;;19.50;63.10;;;;;;5057228;28;20044;-63
2022/04/23 10:55:21;;;;;;;;;;;19.20;63.30;;;;;;5059884;28;20054;-63
2022/04/23 10:57:51;;;;;;;8.82;6.85;;;18.60;63.50;;;;;;5063114;28;20489;-63
2022/04/23 11:00:18;;;;;;;11.63;9.65;;;18.30;63.20;;;;;;5065063;28;20815;-64
2022/04/23 11:02:53;;;;;;;9.10;8.18;;;18.00;63.70;;;;;;5063346;28;20099;-64
2022/04/23 11:13:58;;;;;;;10.48;6.70;;;17.60;63.70;;;;;;5070393;28;20056;-60
2022/04/23 11:16:26;;;;;;;8.90;8.10;;;17.60;63.30;;;;;;5061985;28;20056;-64
2022/04/23 11:18:53;;;;;;;11.98;8.85;;;17.50;63.70;;;;;;5055992;28;20429;-63
2022/04/23 11:21:26;;;;;;;9.05;6.43;;;17.40;63.60;;;;;;5055164;28;20059;-63
2022/04/23 11:23:52;;;;;;;;;;;17.50;64.10;;;;;;5057459;28;20083;-63
2022/04/23 11:26:22;;;;;;;12.18;7.60;;;17.60;62.80;;;;;;5057733;28;19950;-63
2022/04/23 11:28:57;;;;;;;11.95;6.38;;;17.60;62.40;;;;;;5062474;28;20055;-63
2022/04/23 11:31:24;;;;;;;7.90;5.57;;;17.70;62.10;;;;;;5059912;28;20052;-63
2022/04/23 11:33:50;;;;;;;8.93;7.50;;;17.60;61.80;;;;;;5065201;28;20033;-63
2022/04/23 11:36:23;;;;;;;8.15;7.25;;;17.50;63.00;;;;;;5058645;28;20080;-63
2022/04/23 11:38:49;;;;;;;7.20;6.35;;;17.70;62.80;;;;;;5064891;28;20032;-63
2022/04/23 11:41:43;;;;;;;7.18;6.30;;;17.80;62.60;;;;;;5062109;28;20538;-63
2022/04/23 11:44:13;;;;;;;9.00;7.28;;;17.90;61.80;;;;;;5062793;28;20143;-63
2022/04/23 11:46:49;;;;;;;11.80;7.80;;;18.00;62.10;;;;;;5060558;28;20120;-63
2022/04/23 11:49:30;;;;;;;10.30;7.10;;;18.10;62.90;;;;;;5065053;28;20315;-63
2022/04/23 11:52:07;;;;;;;7.72;6.70;;;18.20;61.30;;;;;;5066329;28;20043;-63
2022/04/23 11:54:40;;;;;;;8.35;6.07;;;18.10;61.90;;;;;;5063398;28;20128;-63
2022/04/23 11:57:17;;;;;;;8.10;6.72;;;18.10;61.40;;;;;;5055326;28;20078;-64
2022/04/23 11:59:49;;;;;;;6.93;5.65;;;18.10;61.90;;;;;;5054865;28;20846;-64
2022/04/23 12:02:23;;;;;;;7.57;6.75;;;18.00;60.50;;;;;;5059727;28;20113;-62
2022/04/23 12:04:50;;;;;;;7.05;6.35;;;17.90;60.40;;;;;;5075422;28;20056;-64
2022/04/23 12:07:17;;;;;;;7.57;6.78;;;17.90;60.40;;;;;;5073752;28;20044;-63
2022/04/23 12:09:50;;;;;;;7.22;5.55;;;18.00;60.80;;;;;;5074443;28;20048;-64
2022/04/23 12:12:21;;;;;;;9.15;6.28;;;18.10;60.30;;;;;;5068271;28;20670;-64
2022/04/23 12:14:48;;;;;;;8.13;7.32;;;18.00;59.50;;;;;;5055892;28;20147;-64
2022/04/23 12:17:25;;;;;;;6.45;5.68;;;18.10;59.90;;;;;;5065995;28;20131;-64
2022/04/23 12:19:52;;;;;;;10.70;6.30;;;18.10;59.90;;;;;;5061237;28;20675;-64
2022/04/23 12:22:25;;;;;;;7.15;5.40;;;18.10;59.70;;;;;;5058414;28;20048;-63
2022/04/23 12:24:51;;;;;;;10.05;6.70;;;18.20;58.90;;;;;;5059191;28;20040;-64
2022/04/23 12:27:20;;;;;;;9.88;6.93;;;18.20;59.20;;;;;;5065559;28;20466;-63
2022/04/23 12:40:58;;;;;;;6.35;5.53;;;18.20;58.30;;;;;;5054827;28;20087;-64
2022/04/23 12:43:25;;;;;;;6.78;5.70;;;18.30;59.10;;;;;;5056549;28;20102;-64
2022/04/23 12:46:08;;;;;;;5.93;5.10;;;18.30;59.00;;;;;;5050859;28;20044;-64
2022/04/23 12:48:53;;;;;;;7.53;6.03;;;18.40;59.20;;;;;;5054097;28;20056;-63
2022/04/23 12:51:18;;;;;;;9.35;6.22;;;18.50;59.70;;;;;;5055443;28;20136;-64
2022/04/23 12:53:44;;;;;;;7.47;6.70;;;18.50;59.20;;;;;;5057616;28;20056;-64
2022/04/23 12:56:10;;;;;;;7.68;5.57;;;18.60;59.20;;;;;;5059497;28;20048;-64
2022/04/23 12:58:35;;;;;;;7.43;6.18;;;18.60;59.40;;;;;;5058183;28;20068;-64
2022/04/23 13:01:01;;;;;;;8.02;5.47;;;18.70;58.90;;;;;;5053609;28;20056;-64
2022/04/23 13:03:34;;;;;;;5.63;4.90;;;18.80;59.50;;;;;;5063969;28;20068;-64
2022/04/23 13:06:00;;;;;;;7.22;5.43;;;18.80;58.30;;;;;;5064473;28;20439;-64
2022/04/23 13:11:27;;;;;;;7.78;5.88;;;18.70;58.70;;;;;;5056459;28;20792;-64
2022/04/23 13:14:01;;;;;;;6.05;5.25;;;18.80;58.00;;;;;;5058340;28;20055;-64
2022/04/23 13:16:28;;;;;;;6.45;5.22;;;18.90;57.80;;;;;;5059629;28;20047;-64
2022/04/23 13:18:58;;;;;;;6.93;5.97;;;19.00;57.50;;;;;;5063474;28;20051;-65
2022/04/23 13:21:30;;;;;;;8.98;5.90;;;19.00;57.70;;;;;;5057124;28;20040;-64
2022/04/23 13:23:56;;;;;;;7.70;5.53;;;19.00;58.00;;;;;;5058465;28;20070;-64
2022/04/23 13:26:23;;;;;;;8.48;5.70;;;18.90;57.80;;;;;;5060941;28;20570;-64